Time;durP1;ratioP1;P1;durP2;ratioP2;P2;SDS_P1;SDS_P2;PMS_P1;PMS_P2;Temp;Humidity;BMP_temperature;BMP_pressure;BME280_temperature;BME280_humidity;BME280_pressure;Samples;Min_cycle;Max_cycle;Signal;HPM_P1;HPM_P2
2021/10/27 00:20:09;;;;;;;11.47;8.43;;;;;;;;;;5031667;28;20231;-89
2021/10/27 00:38:48;;;;;;;14.37;9.20;;;;;;;;;;5024610;28;20224;-88
2021/10/27 00:48:14;;;;;;;14.80;9.67;;;;;;;;;;4937803;29;20196;-87
2021/10/27 00:52:44;;;;;;;12.50;9.33;;;;;;;;;;4923159;29;20657;-88
2021/10/27 01:07:15;;;;;;;12.80;8.53;;;;;;;;;;4975298;28;20198;-87
2021/10/27 01:27:59;;;;;;;;;;;;;;;;;;;;;
2021/10/27 01:32:02;;;;;;;13.93;7.53;;;;;;;;;;4954160;28;20555;-88
2021/10/27 01:52:01;;;;;;;9.60;7.47;;;;;;;;;;4912104;29;20212;-88
2021/10/27 02:02:17;;;;;;;;;;;;;;;;;;;;;
2021/10/27 02:06:44;;;;;;;9.80;7.53;;;;;;;;;;4955389;28;20210;-88
2021/10/27 02:16:15;;;;;;;10.47;8.37;;;;;;;;;;4975061;28;20626;-88
2021/10/27 02:24:54;;;;;;;18.10;7.97;;;;;;;;;;5021881;28;20193;-87
2021/10/27 02:29:02;;;;;;;;;;;;;;;;;;;;;
2021/10/27 02:32:58;;;;;;;11.37;7.83;;;;;;;;;;5014175;28;20182;-87
2021/10/27 02:36:35;;;;;;;20.80;8.30;;;;;;;;;;4986285;28;20186;-88
2021/10/27 02:40:30;;;;;;;11.33;8.37;;;;;;;;;;4993583;28;20226;-88
2021/10/27 02:44:31;;;;;;;11.67;8.33;;;;;;;;;;5000487;28;20198;-88
2021/10/27 02:52:17;;;;;;;12.13;8.50;;;;;;;;;;5000556;28;20185;-87
2021/10/27 02:55:43;;;;;;;12.03;8.97;;;;;;;;;;5005466;28;20185;-88
2021/10/27 02:59:19;;;;;;;10.57;8.03;;;;;;;;;;5027874;28;20221;-88
2021/10/27 03:03:02;;;;;;;11.53;8.87;;;;;;;;;;5005415;28;20671;-87
2021/10/27 03:06:12;;;;;;;12.33;8.83;;;;;;;;;;5015444;28;20189;-88
2021/10/27 03:09:33;;;;;;;12.63;9.37;;;;;;;;;;5017004;28;20580;-87
2021/10/27 03:17:42;;;;;;;12.30;9.30;;;;;;;;;;5019921;28;20208;-89
2021/10/27 03:20:58;;;;;;;9.93;7.97;;;;;;;;;;4993177;28;20205;-89
2021/10/27 03:24:13;;;;;;;11.80;8.87;;;;;;;;;;4994538;28;20680;-89
2021/10/27 03:36:55;;;;;;;11.50;7.40;;;;;;;;;;5007130;28;20633;-89
2021/10/27 03:39:59;;;;;;;10.13;6.60;;;;;;;;;;5023710;23;20233;-87
2021/10/27 03:43:03;;;;;;;10.27;7.50;;;;;;;;;;5023529;28;20220;-87
2021/10/27 03:46:08;;;;;;;10.97;8.17;;;;;;;;;;5012744;28;20196;-87
2021/10/27 03:49:12;;;;;;;11.17;8.33;;;;;;;;;;5011348;28;20212;-87
2021/10/27 03:52:17;;;;;;;14.00;8.03;;;;;;;;;;4982020;28;20628;-88
2021/10/27 03:55:21;;;;;;;11.67;7.80;;;;;;;;;;5007779;28;20205;-88
2021/10/27 03:58:25;;;;;;;10.17;7.90;;;;;;;;;;5012155;28;20244;-87
2021/10/27 04:01:29;;;;;;;10.43;7.93;;;;;;;;;;4981132;28;20205;-87
2021/10/27 04:04:33;;;;;;;10.60;8.37;;;;;;;;;;5003705;28;20197;-88
2021/10/27 04:07:37;;;;;;;10.67;7.00;;;;;;;;;;4992172;28;20186;-88
2021/10/27 04:10:41;;;;;;;11.40;7.40;;;;;;;;;;4993251;28;20663;-88
2021/10/27 04:13:45;;;;;;;9.67;7.53;;;;;;;;;;5011980;28;20189;-88
2021/10/27 04:16:49;;;;;;;9.50;7.37;;;;;;;;;;4972751;28;20538;-87
2021/10/27 04:19:53;;;;;;;9.20;6.87;;;;;;;;;;4984413;28;20579;-87
2021/10/27 04:22:57;;;;;;;8.73;6.83;;;;;;;;;;5011725;28;20647;-88
2021/10/27 04:26:01;;;;;;;10.60;7.77;;;;;;;;;;5010729;28;20627;-88
2021/10/27 04:29:05;;;;;;;24.10;8.17;;;;;;;;;;4999421;28;20233;-87
2021/10/27 04:32:10;;;;;;;15.60;9.53;;;;;;;;;;4972486;28;20554;-87
2021/10/27 04:35:15;;;;;;;18.83;10.70;;;;;;;;;;4992345;28;20197;-87
2021/10/27 04:38:20;;;;;;;18.37;11.43;;;;;;;;;;5017817;28;20663;-87
2021/10/27 04:41:24;;;;;;;17.30;11.00;;;;;;;;;;4993195;28;20601;-89
2021/10/27 04:44:28;;;;;;;14.30;9.90;;;;;;;;;;4991829;28;20545;-88
2021/10/27 04:47:33;;;;;;;38.27;10.60;;;;;;;;;;4980741;28;20549;-88
2021/10/27 04:50:37;;;;;;;16.03;9.23;;;;;;;;;;5002271;28;20199;-88
2021/10/27 04:53:41;;;;;;;11.30;9.07;;;;;;;;;;4995578;28;20188;-86
2021/10/27 04:56:46;;;;;;;13.73;9.67;;;;;;;;;;4981281;28;20193;-86
2021/10/27 04:59:50;;;;;;;13.57;9.27;;;;;;;;;;4991196;28;20217;-86
2021/10/27 05:02:54;;;;;;;12.27;9.30;;;;;;;;;;5005229;28;20222;-86
2021/10/27 05:06:01;;;;;;;13.77;11.03;;;;;;;;;;4990798;28;20201;-86
2021/10/27 05:09:05;;;;;;;16.13;10.63;;;;;;;;;;4971597;28;20726;-85
2021/10/27 05:12:10;;;;;;;14.57;10.33;;;;;;;;;;4982808;28;20187;-86
2021/10/27 05:15:14;;;;;;;13.33;9.93;;;;;;;;;;4972025;28;20649;-86
2021/10/27 05:18:18;;;;;;;26.37;13.10;;;;;;;;;;4960602;28;20221;-86
2021/10/27 05:21:23;;;;;;;22.90;12.20;;;;;;;;;;4971518;28;20572;-86
2021/10/27 05:24:27;;;;;;;38.80;11.43;;;;;;;;;;4989465;28;20218;-86
2021/10/27 05:27:31;;;;;;;22.57;10.40;;;;;;;;;;4978147;28;20270;-86
2021/10/27 05:30:35;;;;;;;25.13;10.37;;;;;;;;;;4982655;28;20197;-86
2021/10/27 05:33:39;;;;;;;23.63;11.33;;;;;;;;;;4991404;28;20557;-86
2021/10/27 05:36:44;;;;;;;26.20;11.00;;;;;;;;;;5002519;28;20188;-87
2021/10/27 05:39:48;;;;;;;32.03;10.97;;;;;;;;;;4970883;28;20236;-87
2021/10/27 05:42:52;;;;;;;12.70;9.53;;;;;;;;;;4971371;28;20218;-86
2021/10/27 05:45:57;;;;;;;26.30;10.37;;;;;;;;;;4988797;28;20678;-85
2021/10/27 05:49:07;;;;;;;16.50;11.83;;;;;;;;;;4991616;28;20232;-86
2021/10/27 05:55:27;;;;;;;43.07;11.23;;;;;;;;;;5010599;28;20178;-86
2021/10/27 05:58:31;;;;;;;26.60;11.07;;;;;;;;;;4995903;28;20247;-86
2021/10/27 06:01:37;;;;;;;76.50;10.33;;;;;;;;;;4998938;28;20202;-87
2021/10/27 06:04:41;;;;;;;32.37;10.40;;;;;;;;;;4993734;28;20722;-86
2021/10/27 06:07:46;;;;;;;12.90;10.07;;;;;;;;;;4990494;28;20212;-86
2021/10/27 06:10:55;;;;;;;23.43;9.03;;;;;;;;;;5001844;28;20188;-86
2021/10/27 06:14:01;;;;;;;13.50;9.80;;;;;;;;;;5001375;28;20637;-86
2021/10/27 06:17:06;;;;;;;16.77;9.07;;;;;;;;;;4983827;28;20550;-86
2021/10/27 06:20:11;;;;;;;27.03;9.60;;;;;;;;;;4975783;28;20569;-87
2021/10/27 06:23:14;;;;;;;14.20;9.23;;;;;;;;;;4982665;28;20214;-87
2021/10/27 06:26:20;;;;;;;10.23;8.40;;;;;;;;;;4963756;28;20186;-87
2021/10/27 06:29:30;;;;;;;16.80;9.90;;;;;;;;;;4985755;28;20226;-87
2021/10/27 06:35:42;;;;;;;14.73;9.83;;;;;;;;;;4974509;28;20694;-87
2021/10/27 06:48:55;;;;;;;13.20;10.13;;;;;;;;;;4974089;28;20229;-87
2021/10/27 06:51:59;;;;;;;10.80;9.43;;;;;;;;;;4974323;28;20208;-87
2021/10/27 06:55:04;;;;;;;12.17;9.73;;;;;;;;;;4973975;28;20248;-87
2021/10/27 06:58:10;;;;;;;11.77;9.73;;;;;;;;;;4974102;28;20187;-87
2021/10/27 07:01:19;;;;;;;10.30;9.20;;;;;;;;;;4963436;28;20186;-87
2021/10/27 07:04:51;;;;;;;11.30;9.93;;;;;;;;;;4988666;28;20217;-87
2021/10/27 07:18:05;;;;;;;14.27;8.97;;;;;;;;;;4982347;28;20193;-87
2021/10/27 07:21:09;;;;;;;16.87;8.80;;;;;;;;;;4993423;28;20178;-87
2021/10/27 07:24:15;;;;;;;12.37;9.50;;;;;;;;;;4997346;28;20221;-88
2021/10/27 07:27:19;;;;;;;10.57;8.53;;;;;;;;;;5015802;28;20189;-87
2021/10/27 07:30:23;;;;;;;10.10;8.90;;;;;;;;;;4962532;28;20206;-87
2021/10/27 07:33:29;;;;;;;12.80;9.00;;;;;;;;;;4993625;28;20197;-87
2021/10/27 07:40:32;;;;;;;12.00;9.63;;;;;;;;;;4992479;28;20248;-87
2021/10/27 07:43:31;;;;;;;14.70;9.97;;;;;;;;;;4984620;28;20218;-87
2021/10/27 07:46:36;;;;;;;13.73;9.10;;;;;;;;;;5011810;28;20189;-87
2021/10/27 07:49:40;;;;;;;33.70;11.27;;;;;;;;;;5023046;28;20216;-87
2021/10/27 07:52:44;;;;;;;11.87;9.67;;;;;;;;;;5000947;28;20188;-87
2021/10/27 07:55:50;;;;;;;36.40;11.30;;;;;;;;;;5008496;28;20189;-87
2021/10/27 07:58:54;;;;;;;13.40;10.90;;;;;;;;;;5003607;28;20224;-87
2021/10/27 08:02:06;;;;;;;24.93;10.53;;;;;;;;;;4992446;28;20572;-87
2021/10/27 08:05:11;;;;;;;26.70;11.50;;;;;;;;;;5000802;28;20220;-87
2021/10/27 08:08:21;;;;;;;17.23;10.70;;;;;;;;;;5000699;28;20738;-87
2021/10/27 08:11:26;;;;;;;13.13;11.13;;;;;;;;;;5016299;28;20205;-87
2021/10/27 08:14:30;;;;;;;13.37;10.80;;;;;;;;;;4984598;28;20200;-87
2021/10/27 08:17:35;;;;;;;78.40;11.83;;;;;;;;;;4981971;28;20564;-87
2021/10/27 08:20:40;;;;;;;13.10;10.73;;;;;;;;;;5004101;28;20213;-87
2021/10/27 08:23:46;;;;;;;28.33;11.63;;;;;;;;;;4993116;28;20212;-88
2021/10/27 08:26:56;;;;;;;14.47;10.87;;;;;;;;;;5001277;28;20193;-87
2021/10/27 08:30:05;;;;;;;106.77;13.23;;;;;;;;;;4972144;28;20222;-87
2021/10/27 08:33:19;;;;;;;38.63;12.47;;;;;;;;;;4998525;28;20204;-87
2021/10/27 08:36:27;;;;;;;13.23;10.67;;;;;;;;;;4994162;28;20212;-87
2021/10/27 08:39:31;;;;;;;55.07;12.33;;;;;;;;;;4990852;28;20240;-87
2021/10/27 08:42:35;;;;;;;40.13;11.63;;;;;;;;;;5002457;28;20692;-87
2021/10/27 08:45:41;;;;;;;70.10;11.43;;;;;;;;;;4972617;28;20219;-87
2021/10/27 08:48:50;;;;;;;18.13;11.27;;;;;;;;;;4991357;28;20593;-87
2021/10/27 08:51:57;;;;;;;15.57;10.70;;;;;;;;;;5008248;28;20212;-87
2021/10/27 08:55:03;;;;;;;36.43;11.20;;;;;;;;;;5010720;28;20181;-87
2021/10/27 08:58:07;;;;;;;47.83;11.13;;;;;;;;;;5003344;28;20567;-87
2021/10/27 09:08:40;;;;;;;13.43;10.97;;;;;;;;;;4992179;28;20208;-87
2021/10/27 09:15:10;;;;;;;45.60;12.70;;;;;;;;;;5007911;28;20193;-87
2021/10/27 09:56:40;;;;;;;27.57;10.13;;;;;;;;;;4946733;28;20212;-87
2021/10/27 10:06:49;;;;;;;15.67;11.60;;;;;;;;;;4976612;28;20202;-88
2021/10/27 10:09:54;;;;;;;13.93;10.93;;;;;;;;;;4990734;28;20732;-87
2021/10/27 10:12:58;;;;;;;13.07;10.67;;;;;;;;;;4975238;28;20197;-87
2021/10/27 10:16:02;;;;;;;24.37;10.80;;;;;;;;;;4991673;28;20205;-87
2021/10/27 10:19:10;;;;;;;16.80;11.30;;;;;;;;;;4974428;28;20728;-87
2021/10/27 10:22:35;;;;;;;14.13;11.47;;;;;;;;;;4974786;28;20212;-87
2021/10/27 10:25:49;;;;;;;13.97;10.90;;;;;;;;;;4974176;28;20225;-87
2021/10/27 10:28:53;;;;;;;16.10;11.23;;;;;;;;;;4991821;28;20726;-87
2021/10/27 10:31:57;;;;;;;23.77;12.90;;;;;;;;;;5002197;28;20196;-88
2021/10/27 10:35:18;;;;;;;14.20;11.20;;;;;;;;;;4982606;28;20192;-88
2021/10/27 10:39:28;;;;;;;15.47;12.17;;;;;;;;;;4963247;28;20241;-88
2021/10/27 10:42:10;;;;;;;14.30;10.90;;;;;;;;;;4979216;28;20221;-88
2021/10/27 10:59:54;;;;;;;15.17;12.23;;;;;;;;;;5014103;28;20231;-86
2021/10/27 11:24:08;;;;;;;16.97;12.90;;;;;;;;;;5023731;28;20204;-86
2021/10/27 11:37:29;;;;;;;19.60;16.07;;;;;;;;;;4993195;28;20189;-87
2021/10/27 11:40:39;;;;;;;19.13;14.83;;;;;;;;;;4993388;28;20189;-86
2021/10/27 11:44:09;;;;;;;20.83;15.30;;;;;;;;;;5005119;28;20208;-86
2021/10/27 11:47:37;;;;;;;21.27;16.43;;;;;;;;;;5006853;28;20204;-86
2021/10/27 11:50:43;;;;;;;22.20;17.40;;;;;;;;;;4997315;28;20683;-86
2021/10/27 11:53:49;;;;;;;25.57;18.40;;;;;;;;;;5012832;28;20254;-87
2021/10/27 11:56:54;;;;;;;25.40;19.07;;;;;;;;;;4985979;28;20189;-86
2021/10/27 11:59:59;;;;;;;22.97;17.50;;;;;;;;;;4989652;28;20230;-86
2021/10/27 12:06:29;;;;;;;25.87;18.83;;;;;;;;;;5003528;28;20213;-86
2021/10/27 12:13:18;;;;;;;27.73;19.03;;;;;;;;;;4991151;28;20201;-86
2021/10/27 12:19:38;;;;;;;23.97;17.83;;;;;;;;;;5011747;28;20707;-86
2021/10/27 12:22:43;;;;;;;25.77;18.20;;;;;;;;;;4996242;28;20204;-87
2021/10/27 12:25:49;;;;;;;25.23;19.00;;;;;;;;;;4992627;28;20212;-87
2021/10/27 12:29:14;;;;;;;23.87;18.53;;;;;;;;;;4980803;28;20236;-87
2021/10/27 12:32:19;;;;;;;26.47;18.73;;;;;;;;;;4991698;28;20213;-87
2021/10/27 12:35:24;;;;;;;22.30;17.73;;;;;;;;;;5003029;28;20295;-87
2021/10/27 12:38:32;;;;;;;24.67;18.73;;;;;;;;;;4991853;28;20236;-87
2021/10/27 12:41:37;;;;;;;24.13;18.00;;;;;;;;;;4995151;28;20198;-87
2021/10/27 12:44:50;;;;;;;25.93;18.50;;;;;;;;;;4972212;28;20186;-86
2021/10/27 12:52:35;;;;;;;24.83;18.30;;;;;;;;;;5001067;28;20205;-87
2021/10/27 12:55:41;;;;;;;26.83;19.13;;;;;;;;;;4983634;28;20193;-87
2021/10/27 12:58:51;;;;;;;27.23;19.53;;;;;;;;;;4971834;28;20329;-87
2021/10/27 13:02:08;;;;;;;23.40;18.47;;;;;;;;;;4983141;28;20197;-87
2021/10/27 13:05:31;;;;;;;25.90;18.37;;;;;;;;;;4994796;28;20233;-87
2021/10/27 13:15:10;;;;;;;26.70;19.07;;;;;;;;;;4977459;28;20572;-87
2021/10/27 13:21:43;;;;;;;30.47;20.13;;;;;;;;;;5002479;28;20193;-87
2021/10/27 13:31:33;;;;;;;27.57;20.00;;;;;;;;;;4994180;28;20193;-87
2021/10/27 13:34:37;;;;;;;29.57;20.53;;;;;;;;;;4991195;28;20572;-87
2021/10/27 13:37:41;;;;;;;26.50;20.37;;;;;;;;;;4991380;28;20560;-87
2021/10/27 13:40:46;;;;;;;27.20;20.33;;;;;;;;;;5001902;28;20196;-87
2021/10/27 13:44:00;;;;;;;42.77;29.17;;;;;;;;;;5014974;28;20207;-87
2021/10/27 14:51:01;;;;;;;40.67;26.63;;;;;;;;;;4993983;28;20197;-86
2021/10/27 15:21:24;;;;;;;48.93;32.00;;;;;;;;;;5024468;28;20196;-87
2021/10/27 15:34:48;;;;;;;45.27;29.43;;;;;;;;;;5023145;28;20200;-86
2021/10/27 15:52:09;;;;;;;47.50;29.17;;;;;;;;;;5032895;28;20296;-89
2021/10/27 15:55:17;;;;;;;42.30;26.80;;;;;;;;;;4949703;28;20189;-91
2021/10/27 15:58:22;;;;;;;56.97;34.53;;;;;;;;;;4981183;28;20207;-90
2021/10/27 16:01:27;;;;;;;50.83;31.30;;;;;;;;;;4972194;28;20190;-89
2021/10/27 16:04:32;;;;;;;49.63;30.17;;;;;;;;;;4971955;28;20197;-92
2021/10/27 16:07:44;;;;;;;46.80;28.77;;;;;;;;;;4987368;28;20237;-89
2021/10/27 16:10:57;;;;;;;51.20;30.07;;;;;;;;;;4992488;28;20200;-90
2021/10/27 16:14:06;;;;;;;57.37;33.20;;;;;;;;;;4981041;28;20198;-90
2021/10/27 16:17:14;;;;;;;68.60;39.83;;;;;;;;;;4991390;28;20688;-89
2021/10/27 16:21:13;;;;;;;65.57;38.63;;;;;;;;;;5004414;28;20696;-89
2021/10/27 16:24:30;;;;;;;46.67;28.67;;;;;;;;;;4990287;28;20689;-89
2021/10/27 16:27:37;;;;;;;49.67;28.73;;;;;;;;;;4991247;28;20726;-89
2021/10/27 16:31:10;;;;;;;56.07;32.67;;;;;;;;;;4997049;28;20544;-89
2021/10/27 16:34:52;;;;;;;63.07;31.63;;;;;;;;;;5019063;28;20192;-88
2021/10/27 16:38:08;;;;;;;56.67;31.47;;;;;;;;;;5009103;28;20189;-89
2021/10/27 16:41:16;;;;;;;59.40;32.60;;;;;;;;;;5002434;22;20200;-75
2021/10/27 16:44:21;;;;;;;58.03;32.80;;;;;;;;;;5014389;28;20220;-75
2021/10/27 16:47:25;;;;;;;55.10;30.87;;;;;;;;;;4998271;28;20434;-75
2021/10/27 16:50:30;;;;;;;62.87;35.53;;;;;;;;;;5008218;28;20192;-74
2021/10/27 16:53:35;;;;;;;63.73;38.00;;;;;;;;;;4996512;28;20537;-75
2021/10/27 16:56:39;;;;;;;60.53;34.53;;;;;;;;;;4990709;28;20205;-75
2021/10/27 16:59:43;;;;;;;62.30;34.53;;;;;;;;;;4984818;28;20209;-74
2021/10/27 17:02:47;;;;;;;61.10;31.83;;;;;;;;;;5009899;28;20208;-74
2021/10/27 17:05:52;;;;;;;59.33;31.63;;;;;;;;;;4994855;28;20198;-74
2021/10/27 17:08:56;;;;;;;65.30;33.03;;;;;;;;;;4994648;28;20204;-74
2021/10/27 17:12:00;;;;;;;66.13;32.70;;;;;;;;;;5010280;28;20244;-74
2021/10/27 17:15:07;;;;;;;61.27;31.80;;;;;;;;;;4998780;28;20208;-75
2021/10/27 17:18:14;;;;;;;61.43;31.87;;;;;;;;;;4978496;28;20200;-75
2021/10/27 17:21:19;;;;;;;54.00;31.37;;;;;;;;;;4990014;28;20229;-74
2021/10/27 17:24:25;;;;;;;55.23;31.67;;;;;;;;;;4995321;28;20206;-74
2021/10/27 17:27:30;;;;;;;61.50;33.00;;;;;;;;;;4999204;28;20713;-74
2021/10/27 17:30:36;;;;;;;55.43;30.90;;;;;;;;;;4990156;28;21023;-74
2021/10/27 17:33:42;;;;;;;60.60;32.00;;;;;;;;;;4978867;28;20201;-74
2021/10/27 17:36:47;;;;;;;60.07;32.67;;;;;;;;;;4992957;28;20197;-74
2021/10/27 17:39:52;;;;;;;73.23;35.30;;;;;;;;;;4981994;28;20197;-75
2021/10/27 17:42:57;;;;;;;66.07;35.77;;;;;;;;;;4989905;28;20605;-74
2021/10/27 17:46:03;;;;;;;74.57;36.63;;;;;;;;;;4977666;28;20195;-74
2021/10/27 17:49:13;;;;;;;72.30;36.53;;;;;;;;;;4988003;28;20202;-74
2021/10/27 17:58:47;;;;;;;76.17;37.80;;;;;;;;;;4999313;28;20664;-74
2021/10/27 18:01:51;;;;;;;67.27;34.10;;;;;;;;;;4989750;28;20751;-74
2021/10/27 18:04:57;;;;;;;66.03;35.23;;;;;;;;;;4990222;28;20201;-75
2021/10/27 18:08:01;;;;;;;56.40;32.00;;;;;;;;;;4990004;28;20221;-75
2021/10/27 18:11:09;;;;;;;53.50;29.80;;;;;;;;;;4966758;28;20228;-75
2021/10/27 18:14:21;;;;;;;58.77;30.03;;;;;;;;;;4984920;28;20213;-74
2021/10/27 18:17:28;;;;;;;60.00;32.37;;;;;;;;;;5013590;28;20186;-72
2021/10/27 18:20:40;;;;;;;51.53;28.90;;;;;;;;;;4993086;28;20233;-74
2021/10/27 18:27:33;;;;;;;58.07;31.33;;;;;;;;;;4993567;28;20214;-74
2021/10/27 18:37:32;;;;;;;42.30;25.17;;;;;;;;;;4993556;28;20179;-74
2021/10/27 18:40:54;;;;;;;44.63;26.80;;;;;;;;;;4993272;28;20226;-74
2021/10/27 18:43:58;;;;;;;47.30;26.53;;;;;;;;;;4990810;28;20197;-73
2021/10/27 18:47:04;;;;;;;48.60;27.23;;;;;;;;;;5012693;28;20220;-74
2021/10/27 18:50:09;;;;;;;47.10;27.57;;;;;;;;;;4995389;28;20277;-74
2021/10/27 18:59:39;;;;;;;93.63;41.70;;;;;;;;;;5010018;28;20216;-73
2021/10/27 19:12:50;;;;;;;42.03;25.43;;;;;;;;;;4992787;28;20553;-74
2021/10/27 19:15:55;;;;;;;43.70;26.27;;;;;;;;;;5001251;28;20201;-74
2021/10/27 19:18:59;;;;;;;46.00;27.20;;;;;;;;;;5012165;28;20205;-74
2021/10/27 19:22:03;;;;;;;47.33;27.63;;;;;;;;;;4982165;28;20230;-75
2021/10/27 19:25:20;;;;;;;46.57;26.07;;;;;;;;;;4960320;28;20205;-74
2021/10/27 19:28:39;;;;;;;43.37;26.00;;;;;;;;;;5012117;28;20585;-74
2021/10/27 20:54:56;;;;;;;38.90;24.00;;;;;;;;;;5002076;28;20201;-74
2021/10/27 21:01:27;;;;;;;48.97;24.83;;;;;;;;;;5013953;28;20229;-76
2021/10/27 21:04:46;;;;;;;44.80;25.00;;;;;;;;;;5011648;28;20208;-74
2021/10/27 21:15:07;;;;;;;50.13;23.93;;;;;;;;;;4982782;28;20197;-76
2021/10/27 21:18:11;;;;;;;48.73;24.47;;;;;;;;;;4996447;28;20190;-75
2021/10/27 21:21:16;;;;;;;48.37;26.57;;;;;;;;;;5001849;28;20224;-75
2021/10/27 21:24:20;;;;;;;40.17;24.93;;;;;;;;;;5011617;28;20560;-74
2021/10/27 21:28:25;;;;;;;45.93;25.80;;;;;;;;;;4993987;28;20305;-75
2021/10/27 21:31:15;;;;;;;42.77;24.80;;;;;;;;;;4999672;28;20228;-75
2021/10/27 21:48:20;;;;;;;50.07;25.97;;;;;;;;;;5011348;28;20236;-89
2021/10/27 21:52:06;;;;;;;43.90;25.90;;;;;;;;;;5006916;28;20200;-87
2021/10/27 22:04:25;;;;;;;48.27;23.90;;;;;;;;;;4878175;29;20628;-88
2021/10/27 22:18:29;;;;;;;41.00;26.17;;;;;;;;;;4935881;29;20203;-87
2021/10/27 22:23:17;;;;;;;41.97;25.47;;;;;;;;;;4907642;28;20193;-87
2021/10/27 22:27:04;;;;;;;51.73;24.77;;;;;;;;;;4836235;29;20215;-87
2021/10/27 22:39:47;;;;;;;62.70;26.83;;;;;;;;;;4947170;29;20558;-88
2021/10/27 22:43:10;;;;;;;50.97;29.53;;;;;;;;;;4921467;29;20315;-88
2021/10/27 22:46:52;;;;;;;68.77;29.33;;;;;;;;;;4953827;29;20602;-88
2021/10/27 22:50:58;;;;;;;55.23;29.10;;;;;;;;;;4938330;28;20697;-88
2021/10/27 22:58:12;;;;;;;51.90;29.27;;;;;;;;;;4972288;28;20562;-88
2021/10/27 23:06:37;;;;;;;49.97;28.77;;;;;;;;;;4966767;28;20201;-87
2021/10/27 23:45:31;;;;;;;55.47;29.43;;;;;;;;;;4907633;29;20214;-88
2021/10/27 23:49:48;;;;;;;72.47;31.63;;;;;;;;;;4899247;29;20232;-88
